Time;durP1;ratioP1;P1;durP2;ratioP2;P2;SDS_P1;SDS_P2;PMS_P1;PMS_P2;Temp;Humidity;BMP_temperature;BMP_pressure;BME280_temperature;BME280_humidity;BME280_pressure;Samples;Min_cycle;Max_cycle;Signal;HPM_P1;HPM_P2
2021/01/05 00:01:36;;;;;;;4.13;3.72;;;22.10;37.80;;;;;;5149236;27;20303;-63
2021/01/05 00:04:03;;;;;;;5.60;4.35;;;22.20;37.80;;;;;;5149439;27;20464;-63
2021/01/05 00:06:30;;;;;;;5.10;4.20;;;22.10;37.80;;;;;;5148336;27;20095;-66
2021/01/05 00:08:56;;;;;;;5.97;4.45;;;22.10;37.80;;;;;;5130845;27;20107;-63
2021/01/05 00:11:23;;;;;;;5.07;3.67;;;22.10;37.80;;;;;;5148824;27;20051;-63
2021/01/05 00:13:50;;;;;;;5.05;3.97;;;22.10;37.80;;;;;;5131073;27;20475;-63
2021/01/05 00:16:16;;;;;;;4.45;3.95;;;22.10;37.80;;;;;;5148879;27;20097;-63
2021/01/05 00:18:43;;;;;;;6.07;3.88;;;22.10;37.80;;;;;;5149132;27;20178;-63
2021/01/05 00:21:10;;;;;;;4.78;3.95;;;22.10;37.80;;;;;;5148668;27;20069;-63
2021/01/05 00:23:36;;;;;;;3.88;3.35;;;22.10;38.40;;;;;;5131282;27;20042;-63
2021/01/05 00:26:03;;;;;;;3.67;3.35;;;22.10;37.80;;;;;;5149375;27;20472;-63
2021/01/05 00:28:29;;;;;;;4.43;4.03;;;22.00;37.80;;;;;;5149216;27;20046;-63
2021/01/05 00:30:56;;;;;;;6.25;3.97;;;22.00;37.80;;;;;;5149248;27;20042;-63
2021/01/05 00:33:22;;;;;;;4.65;3.40;;;22.00;37.80;;;;;;5149049;27;20092;-63
2021/01/05 00:35:49;;;;;;;4.38;3.90;;;22.00;37.80;;;;;;5148983;27;20133;-63
2021/01/05 00:38:15;;;;;;;4.78;3.78;;;22.00;37.80;;;;;;5149061;27;20521;-63
2021/01/05 00:40:42;;;;;;;4.15;3.75;;;22.00;37.80;;;;;;5148890;27;20075;-63
2021/01/05 00:43:09;;;;;;;4.05;3.50;;;22.00;37.80;;;;;;5148726;27;20039;-63
2021/01/05 00:45:38;;;;;;;4.63;3.60;;;22.10;37.80;;;;;;5149139;27;20082;-63
2021/01/05 00:48:06;;;;;;;4.13;3.38;;;22.10;37.80;;;;;;5148752;27;20055;-63
2021/01/05 00:50:34;;;;;;;4.50;4.10;;;22.10;37.70;;;;;;5149509;27;20209;-63
2021/01/05 00:53:01;;;;;;;3.67;3.33;;;22.10;37.70;;;;;;5148990;27;20111;-63
2021/01/05 00:55:28;;;;;;;4.85;4.03;;;22.10;37.60;;;;;;5148859;27;20038;-63
2021/01/05 00:57:55;;;;;;;4.72;3.90;;;22.10;37.60;;;;;;5147411;27;20307;-63
2021/01/05 01:00:26;;;;;;;4.60;3.70;;;22.10;37.70;;;;;;5149496;27;20052;-66
2021/01/05 01:02:56;;;;;;;4.60;3.58;;;22.10;37.70;;;;;;5148348;27;20078;-63
2021/01/05 01:05:22;;;;;;;4.32;3.63;;;22.00;37.60;;;;;;5149031;27;20127;-63
2021/01/05 01:07:49;;;;;;;5.38;4.45;;;22.00;37.60;;;;;;5149332;27;20123;-63
2021/01/05 01:10:16;;;;;;;4.68;3.47;;;22.00;37.60;;;;;;5130730;27;20556;-63
2021/01/05 01:12:43;;;;;;;4.57;3.55;;;22.10;37.70;;;;;;5149008;27;20137;-63
2021/01/05 01:15:12;;;;;;;5.25;4.00;;;22.00;37.60;;;;;;5148688;27;20085;-63
2021/01/05 01:17:39;;;;;;;4.25;3.65;;;22.00;38.20;;;;;;5149164;27;20051;-63
2021/01/05 01:20:07;;;;;;;4.18;3.58;;;22.00;37.70;;;;;;5148669;27;20403;-63
2021/01/05 01:22:34;;;;;;;4.35;3.92;;;22.00;37.70;;;;;;5130247;27;20199;-63
2021/01/05 01:25:01;;;;;;;4.60;3.80;;;22.00;37.70;;;;;;5148815;27;20070;-63
2021/01/05 01:27:27;;;;;;;4.28;3.60;;;22.00;37.70;;;;;;5148915;27;20239;-63
2021/01/05 01:29:54;;;;;;;4.78;4.00;;;22.00;37.70;;;;;;5147666;27;20515;-63
2021/01/05 01:32:21;;;;;;;5.18;3.70;;;22.00;37.70;;;;;;5148364;27;20072;-63
2021/01/05 01:34:47;;;;;;;5.00;4.30;;;22.00;37.70;;;;;;5148653;27;20043;-63
2021/01/05 01:37:16;;;;;;;4.70;4.18;;;22.00;37.70;;;;;;5148352;27;20045;-63
2021/01/05 01:39:44;;;;;;;5.25;3.90;;;22.00;37.60;;;;;;5148722;27;20099;-63
2021/01/05 01:42:13;;;;;;;4.40;3.63;;;22.00;37.60;;;;;;5130283;27;20074;-63
2021/01/05 01:44:41;;;;;;;4.57;3.72;;;22.00;37.60;;;;;;5148249;27;20038;-63
2021/01/05 01:47:22;;;;;;;6.60;4.53;;;22.00;37.60;;;;;;5148078;27;20051;-63
2021/01/05 01:49:52;;;;;;;3.58;3.28;;;22.00;37.50;;;;;;5148682;27;20555;-63
2021/01/05 01:52:39;;;;;;;;;;;22.00;37.60;;;;;;5151066;27;20110;-63
2021/01/05 01:55:28;;;;;;;6.55;4.20;;;22.00;37.50;;;;;;5138236;27;20383;-64
2021/01/05 01:58:35;;;;;;;3.50;3.20;;;22.00;37.60;;;;;;5155427;27;20095;-63
2021/01/05 02:01:35;;;;;;;4.97;3.83;;;22.00;37.60;;;;;;5139535;27;20042;-63
2021/01/05 02:04:41;;;;;;;5.68;4.40;;;22.00;37.60;;;;;;5154032;27;20111;-63
2021/01/05 02:07:40;;;;;;;4.28;3.60;;;22.00;37.60;;;;;;5155541;27;20239;-63
2021/01/05 02:10:23;;;;;;;4.25;3.35;;;21.90;37.60;;;;;;5156225;27;20081;-63
2021/01/05 02:13:03;;;;;;;4.25;3.85;;;21.90;37.60;;;;;;5151503;27;20068;-66
2021/01/05 02:15:36;;;;;;;;;;;21.90;37.60;;;;;;5151900;27;20045;-63
2021/01/05 02:18:33;;;;;;;5.20;4.35;;;21.90;37.60;;;;;;5151341;27;20064;-62
2021/01/05 02:21:04;;;;;;;3.70;3.40;;;21.90;37.60;;;;;;5136358;27;20074;-63
2021/01/05 02:23:42;;;;;;;;;;;21.90;37.60;;;;;;5151621;27;20046;-63
2021/01/05 02:26:19;;;;;;;3.60;3.25;;;21.90;37.60;;;;;;5150441;27;20251;-63
2021/01/05 02:28:58;;;;;;;5.70;4.05;;;21.90;37.60;;;;;;5151181;27;20617;-63
2021/01/05 02:31:41;;;;;;;4.88;3.85;;;21.90;37.60;;;;;;5151370;27;20137;-63
2021/01/05 02:34:48;;;;;;;4.85;3.92;;;21.90;37.60;;;;;;5151510;27;20178;-63
2021/01/05 02:37:32;;;;;;;5.40;4.35;;;22.00;37.60;;;;;;5151354;27;20066;-63
2021/01/05 02:40:24;;;;;;;4.68;3.85;;;22.00;37.60;;;;;;5151125;27;20089;-63
2021/01/05 02:43:21;;;;;;;5.20;3.78;;;22.00;37.60;;;;;;5150612;27;20057;-63
2021/01/05 02:46:27;;;;;;;5.00;3.92;;;21.90;37.50;;;;;;5152453;27;20088;-63
2021/01/05 02:49:20;;;;;;;6.30;4.13;;;21.90;37.50;;;;;;5137623;27;20101;-63
2021/01/05 02:52:27;;;;;;;4.43;3.72;;;21.90;37.50;;;;;;5153239;27;20303;-63
2021/01/05 02:55:23;;;;;;;4.00;3.38;;;21.90;37.50;;;;;;5152869;27;20141;-63
2021/01/05 02:58:14;;;;;;;3.97;3.47;;;21.90;37.50;;;;;;5152572;27;20319;-63
2021/01/05 03:01:20;;;;;;;3.97;3.58;;;21.90;37.50;;;;;;5152493;27;20482;-63
2021/01/05 03:03:50;;;;;;;4.20;3.47;;;21.90;37.60;;;;;;5137540;27;20097;-63
2021/01/05 03:06:28;;;;;;;5.05;4.03;;;21.90;37.60;;;;;;5151964;27;20171;-63
2021/01/05 03:09:23;;;;;;;4.38;3.80;;;21.90;37.60;;;;;;5153020;27;20115;-63
2021/01/05 03:12:13;;;;;;;3.97;3.58;;;21.90;38.10;;;;;;5152447;27;20066;-63
2021/01/05 03:15:08;;;;;;;4.35;3.65;;;21.90;37.60;;;;;;5151706;27;20050;-63
2021/01/05 03:17:46;;;;;;;3.88;3.20;;;21.90;37.60;;;;;;5152945;27;20046;-63
2021/01/05 03:20:26;;;;;;;5.20;3.78;;;21.90;37.60;;;;;;5152523;27;20141;-63
2021/01/05 03:23:00;;;;;;;3.97;3.57;;;21.90;37.60;;;;;;5152679;27;20123;-63
2021/01/05 03:25:31;;;;;;;4.72;3.88;;;21.90;37.60;;;;;;5152343;27;20073;-63
2021/01/05 03:28:01;;;;;;;4.15;3.70;;;21.90;37.60;;;;;;5152350;27;20078;-63
2021/01/05 03:30:35;;;;;;;4.00;3.10;;;21.90;37.50;;;;;;5152380;27;20084;-63
2021/01/05 03:33:01;;;;;;;3.90;3.20;;;21.90;37.50;;;;;;5151616;27;20047;-63
2021/01/05 03:35:28;;;;;;;4.70;3.90;;;21.90;37.50;;;;;;5133776;27;20051;-63
2021/01/05 03:37:56;;;;;;;3.70;3.35;;;21.90;37.40;;;;;;5152139;27;20460;-63
2021/01/05 03:40:24;;;;;;;4.45;3.60;;;21.90;37.40;;;;;;5152368;27;20069;-63
2021/01/05 03:42:52;;;;;;;3.90;3.40;;;21.90;37.50;;;;;;5151958;27;20070;-65
2021/01/05 03:45:22;;;;;;;4.38;3.83;;;21.90;37.40;;;;;;5152254;27;20139;-63
2021/01/05 03:47:49;;;;;;;3.97;3.25;;;21.90;37.40;;;;;;5151537;27;20081;-63
2021/01/05 03:50:17;;;;;;;4.72;3.90;;;21.90;37.50;;;;;;5133593;27;20046;-63
2021/01/05 03:52:44;;;;;;;4.35;3.58;;;21.90;37.50;;;;;;5151696;27;20122;-63
2021/01/05 03:55:13;;;;;;;4.50;4.00;;;21.90;37.50;;;;;;5151742;27;20129;-63
2021/01/05 03:57:40;;;;;;;4.18;3.78;;;21.90;37.50;;;;;;5133195;27;20350;-63
2021/01/05 04:00:09;;;;;;;4.70;3.85;;;21.90;37.50;;;;;;5151566;27;20042;-63
2021/01/05 04:02:36;;;;;;;4.03;3.65;;;21.90;37.60;;;;;;5151803;27;20038;-63
2021/01/05 04:05:08;;;;;;;5.18;4.28;;;21.80;37.50;;;;;;5151786;27;20050;-63
2021/01/05 04:07:35;;;;;;;3.75;3.35;;;21.80;37.50;;;;;;5151831;27;20383;-63
2021/01/05 04:10:02;;;;;;;3.90;3.50;;;21.80;37.50;;;;;;5151227;27;20111;-63
2021/01/05 04:12:28;;;;;;;4.47;3.60;;;21.80;37.50;;;;;;5151362;27;20509;-63
2021/01/05 04:14:55;;;;;;;3.95;3.55;;;21.80;37.60;;;;;;5150982;27;20074;-63
2021/01/05 04:17:22;;;;;;;4.47;3.65;;;21.80;37.60;;;;;;5151180;27;20051;-63
2021/01/05 04:19:48;;;;;;;4.28;3.45;;;21.80;37.60;;;;;;5151560;27;20069;-63
2021/01/05 04:22:15;;;;;;;5.45;4.07;;;21.80;37.50;;;;;;5151094;27;20078;-63
2021/01/05 04:24:41;;;;;;;4.55;3.85;;;21.90;37.60;;;;;;5116502;27;20038;-63
2021/01/05 04:27:08;;;;;;;4.20;3.33;;;21.90;37.50;;;;;;5151000;27;20358;-63
2021/01/05 04:29:34;;;;;;;4.50;3.67;;;21.90;37.50;;;;;;5151633;27;20043;-63
2021/01/05 04:32:01;;;;;;;4.18;3.50;;;21.80;37.40;;;;;;5151292;27;20138;-63
2021/01/05 04:34:28;;;;;;;4.20;3.72;;;21.90;37.50;;;;;;5151177;27;20085;-63
2021/01/05 04:36:54;;;;;;;4.65;4.05;;;21.80;37.40;;;;;;5137661;27;20063;-63
2021/01/05 04:39:21;;;;;;;3.65;3.30;;;21.90;37.50;;;;;;5130394;28;20051;-63
2021/01/05 04:42:02;;;;;;;4.47;3.42;;;21.80;37.40;;;;;;5129901;28;20100;-63
2021/01/05 04:44:40;;;;;;;3.38;3.10;;;21.80;37.40;;;;;;5130490;28;20095;-63
2021/01/05 04:47:29;;;;;;;4.00;3.60;;;21.80;37.50;;;;;;5130026;28;20071;-62
2021/01/05 04:50:06;;;;;;;5.05;3.83;;;21.80;37.50;;;;;;5130316;28;20075;-63
2021/01/05 04:52:43;;;;;;;3.95;3.55;;;21.80;37.50;;;;;;5111082;28;20067;-63
2021/01/05 04:55:26;;;;;;;3.40;3.10;;;21.80;37.50;;;;;;5111853;28;20100;-66
2021/01/05 04:58:03;;;;;;;4.20;3.30;;;21.80;37.50;;;;;;5129479;28;20484;-63
2021/01/05 05:00:31;;;;;;;4.22;3.60;;;21.80;37.50;;;;;;5129649;28;20120;-63
2021/01/05 05:03:06;;;;;;;4.40;3.55;;;21.80;37.50;;;;;;5109258;28;20047;-63
2021/01/05 05:05:57;;;;;;;4.10;3.30;;;21.80;37.50;;;;;;5127486;28;20132;-63
2021/01/05 05:08:38;;;;;;;4.05;3.40;;;21.80;37.50;;;;;;5109876;28;20126;-63
2021/01/05 05:11:14;;;;;;;3.20;2.95;;;21.80;37.50;;;;;;5127453;28;20055;-63
2021/01/05 05:14:04;;;;;;;5.30;4.00;;;21.80;37.50;;;;;;5110757;28;20134;-63
2021/01/05 05:17:08;;;;;;;4.07;3.05;;;21.80;37.50;;;;;;5109743;28;20098;-63
2021/01/05 05:20:15;;;;;;;4.10;3.70;;;21.80;37.50;;;;;;5114770;28;20051;-65
2021/01/05 05:23:17;;;;;;;4.13;3.33;;;21.80;37.50;;;;;;5129638;28;20165;-65
2021/01/05 05:25:49;;;;;;;3.40;3.10;;;21.80;37.50;;;;;;5131907;27;20094;-65
2021/01/05 05:28:29;;;;;;;3.95;3.53;;;21.80;37.50;;;;;;5115233;27;20092;-65
2021/01/05 05:30:58;;;;;;;4.15;3.40;;;21.80;37.50;;;;;;5134469;27;20188;-65
2021/01/05 05:33:29;;;;;;;4.03;3.45;;;21.80;37.40;;;;;;5115194;27;20722;-65
2021/01/05 05:36:24;;;;;;;4.32;3.58;;;21.80;37.50;;;;;;5133053;27;20043;-65
2021/01/05 05:39:31;;;;;;;3.03;2.72;;;21.80;37.50;;;;;;5121704;27;20055;-65
2021/01/05 05:42:32;;;;;;;4.30;3.08;;;21.80;37.50;;;;;;5116913;27;20059;-64
2021/01/05 05:45:07;;;;;;;5.45;3.70;;;21.80;37.50;;;;;;5133205;27;20047;-65
2021/01/05 05:47:50;;;;;;;5.63;3.58;;;21.80;37.50;;;;;;5132771;27;20515;-65
2021/01/05 05:50:23;;;;;;;4.35;3.22;;;21.70;37.50;;;;;;5132657;27;20066;-65
2021/01/05 05:53:09;;;;;;;3.72;3.33;;;21.70;37.50;;;;;;5132508;27;20335;-65
2021/01/05 05:56:02;;;;;;;4.30;3.50;;;21.70;37.50;;;;;;5110968;27;20392;-65
2021/01/05 05:58:34;;;;;;;3.10;2.80;;;21.70;37.50;;;;;;5115803;27;20142;-65
2021/01/05 06:01:03;;;;;;;4.10;3.70;;;21.70;37.50;;;;;;5133707;27;20535;-65
2021/01/05 06:03:30;;;;;;;5.40;3.90;;;21.70;37.50;;;;;;5139545;27;20131;-65
2021/01/05 06:05:57;;;;;;;4.95;3.47;;;21.70;37.50;;;;;;5144366;27;20618;-66
2021/01/05 06:08:24;;;;;;;4.53;3.58;;;21.70;37.50;;;;;;5135831;27;20070;-66
2021/01/05 06:10:52;;;;;;;4.75;3.70;;;21.70;37.50;;;;;;5133371;27;20122;-65
2021/01/05 06:13:19;;;;;;;4.85;3.50;;;21.70;37.40;;;;;;5112919;27;20043;-65
2021/01/05 06:15:46;;;;;;;3.65;3.15;;;21.70;37.40;;;;;;5135029;27;20660;-65
2021/01/05 06:18:16;;;;;;;5.05;3.25;;;21.70;37.20;;;;;;5130225;27;20071;-63
2021/01/05 06:20:43;;;;;;;6.63;4.40;;;21.70;37.10;;;;;;5110288;27;20047;-64
2021/01/05 06:23:10;;;;;;;3.67;3.38;;;21.70;37.00;;;;;;5127791;27;20177;-64
2021/01/05 06:25:37;;;;;;;7.30;3.30;;;21.80;37.10;;;;;;5107269;27;20067;-65
2021/01/05 06:28:05;;;;;;;3.67;3.22;;;21.80;37.00;;;;;;5133111;27;20088;-65
2021/01/05 06:30:32;;;;;;;5.03;3.63;;;21.80;37.00;;;;;;5121405;27;20074;-64
2021/01/05 06:32:59;;;;;;;5.32;3.53;;;21.90;36.90;;;;;;5125242;27;20118;-64
2021/01/05 06:35:26;;;;;;;5.30;3.83;;;22.00;36.80;;;;;;5123518;27;20047;-64
2021/01/05 06:37:53;;;;;;;5.25;4.18;;;22.10;36.80;;;;;;5098762;27;21411;-64
2021/01/05 06:40:26;;;;;;;4.03;3.33;;;22.20;36.70;;;;;;5116545;27;20039;-64
2021/01/05 06:46:55;;;;;;;4.45;3.42;;;22.30;36.40;;;;;;5114554;27;20445;-67
2021/01/05 06:49:39;;;;;;;8.18;3.90;;;22.40;36.30;;;;;;5120014;27;20866;-66
2021/01/05 06:52:05;;;;;;;7.78;3.80;;;22.50;36.50;;;;;;5106444;27;20139;-63
2021/01/05 06:54:33;;;;;;;6.13;3.60;;;22.50;36.60;;;;;;5119583;27;21047;-67
2021/01/05 06:57:03;;;;;;;5.88;3.55;;;22.60;36.70;;;;;;5119853;27;20134;-64
2021/01/05 06:59:30;;;;;;;5.30;3.67;;;22.70;37.10;;;;;;5120305;27;20049;-66
2021/01/05 07:02:02;;;;;;;4.68;3.55;;;22.80;37.00;;;;;;5122217;27;20712;-64
2021/01/05 07:04:29;;;;;;;5.05;3.75;;;22.90;37.10;;;;;;5121563;27;20047;-65
2021/01/05 07:06:57;;;;;;;5.50;3.80;;;22.90;37.00;;;;;;5119791;27;20043;-68
2021/01/05 07:09:26;;;;;;;3.60;3.15;;;23.00;37.10;;;;;;5124930;27;20182;-65
2021/01/05 07:11:53;;;;;;;5.38;3.55;;;23.10;36.90;;;;;;5125269;27;20500;-70
2021/01/05 07:14:23;;;;;;;6.45;4.15;;;23.20;36.90;;;;;;5123091;27;20438;-65
2021/01/05 07:16:52;;;;;;;6.00;4.32;;;23.20;36.80;;;;;;5121778;27;20054;-66
2021/01/05 07:19:18;;;;;;;5.80;3.78;;;23.30;36.70;;;;;;5118279;27;20134;-65
2021/01/05 07:21:45;;;;;;;8.40;4.38;;;23.40;36.60;;;;;;5118578;27;20051;-68
2021/01/05 07:24:12;;;;;;;5.80;3.83;;;23.50;36.40;;;;;;5139883;27;20543;-65
2021/01/05 07:26:44;;;;;;;7.03;3.80;;;23.50;36.30;;;;;;5134035;27;20134;-67
2021/01/05 07:33:26;;;;;;;;;;;23.50;36.20;;;;;;5138981;27;20095;-66
2021/01/05 07:35:52;;;;;;;6.65;4.35;;;23.50;36.20;;;;;;5107606;27;20537;-66
2021/01/05 07:38:19;;;;;;;6.20;4.28;;;23.50;36.20;;;;;;5106416;27;20626;-65
2021/01/05 07:40:46;;;;;;;5.70;3.92;;;23.60;36.40;;;;;;5107224;27;20710;-69
2021/01/05 07:43:13;;;;;;;8.75;4.03;;;23.50;36.40;;;;;;5126175;27;20099;-67
2021/01/05 07:46:30;;;;;;;8.20;3.70;;;23.50;36.50;;;;;;5119335;27;20255;-69
2021/01/05 07:49:11;;;;;;;4.72;4.05;;;23.60;36.60;;;;;;5114881;27;20787;-67
2021/01/05 07:51:43;;;;;;;4.85;3.58;;;23.60;36.80;;;;;;5116941;27;20442;-70
2021/01/05 07:54:10;;;;;;;6.57;4.07;;;23.60;36.90;;;;;;5110719;27;20039;-65
2021/01/05 07:56:37;;;;;;;5.18;3.80;;;23.70;36.90;;;;;;5113577;27;20082;-67
2021/01/05 07:59:28;;;;;;;5.57;3.80;;;23.70;36.70;;;;;;5100075;27;20778;-66
2021/01/05 08:01:55;;;;;;;7.55;3.88;;;23.80;36.60;;;;;;5108304;27;20651;-66
2021/01/05 08:04:21;;;;;;;6.72;3.85;;;23.80;36.60;;;;;;5110033;27;20051;-68
2021/01/05 08:06:48;;;;;;;5.38;3.33;;;23.80;36.60;;;;;;5120951;27;20070;-66
2021/01/05 08:09:14;;;;;;;6.03;3.90;;;23.80;36.40;;;;;;5112811;27;20054;-68
2021/01/05 08:12:10;;;;;;;5.40;3.78;;;23.90;36.40;;;;;;5111077;27;20113;-67
2021/01/05 08:14:36;;;;;;;4.07;3.38;;;23.90;36.30;;;;;;5111385;27;20263;-68
2021/01/05 08:17:03;;;;;;;4.40;3.50;;;23.90;36.40;;;;;;5086888;27;20055;-68
2021/01/05 08:19:29;;;;;;;4.57;3.33;;;23.90;36.50;;;;;;5092111;27;20046;-68
2021/01/05 08:21:56;;;;;;;5.90;3.80;;;23.90;36.40;;;;;;5111496;27;20078;-71
2021/01/05 08:24:58;;;;;;;7.97;3.65;;;23.90;36.40;;;;;;5112784;27;20039;-70
2021/01/05 08:27:25;;;;;;;5.00;3.58;;;23.90;36.40;;;;;;5123499;27;20055;-69
2021/01/05 08:29:51;;;;;;;4.88;3.30;;;23.90;36.20;;;;;;5121679;27;20104;-65
2021/01/05 08:32:18;;;;;;;6.20;4.05;;;23.90;36.10;;;;;;5113925;27;20047;-67
2021/01/05 08:34:45;;;;;;;5.78;3.90;;;23.90;36.00;;;;;;5129681;27;20043;-67
2021/01/05 08:40:27;;;;;;;4.82;3.42;;;24.00;35.90;;;;;;5113110;27;20043;-68
2021/01/05 08:42:59;;;;;;;12.65;3.72;;;24.00;35.70;;;;;;5117745;27;20392;-68
2021/01/05 08:45:47;;;;;;;8.90;3.58;;;24.00;35.60;;;;;;5084316;27;20043;-66
2021/01/05 08:48:14;;;;;;;7.75;4.03;;;24.00;35.70;;;;;;5119410;27;20071;-67
2021/01/05 08:54:22;;;;;;;8.55;4.47;;;24.00;35.30;;;;;;5158351;27;20109;-65
2021/01/05 08:56:53;;;;;;;5.75;3.75;;;23.90;35.20;;;;;;5158332;27;20078;-69
2021/01/05 08:59:20;;;;;;;6.45;4.75;;;23.90;35.10;;;;;;5158296;27;20057;-71
2021/01/05 09:01:46;;;;;;;6.03;4.03;;;23.80;35.00;;;;;;5161981;27;20479;-71
2021/01/05 09:04:13;;;;;;;4.88;3.80;;;23.80;34.90;;;;;;5126822;27;20567;-69
2021/01/05 09:06:40;;;;;;;5.35;4.32;;;23.80;34.80;;;;;;5161803;27;20082;-69
2021/01/05 09:09:07;;;;;;;6.97;3.83;;;23.80;34.70;;;;;;5162747;27;20111;-68
2021/01/05 09:11:34;;;;;;;6.28;3.97;;;23.80;34.70;;;;;;5141132;27;20081;-67
2021/01/05 09:14:00;;;;;;;5.30;3.95;;;23.70;34.60;;;;;;5140911;27;20575;-66
2021/01/05 09:16:30;;;;;;;7.18;4.00;;;23.80;34.70;;;;;;5140932;27;20090;-65
2021/01/05 09:18:58;;;;;;;6.13;3.75;;;23.80;35.00;;;;;;5137313;27;20554;-71
2021/01/05 09:21:28;;;;;;;5.13;4.18;;;23.80;35.10;;;;;;5120535;27;20047;-68
2021/01/05 09:24:02;;;;;;;7.22;3.95;;;23.80;35.20;;;;;;5140780;27;20047;-70
2021/01/05 09:26:34;;;;;;;5.55;4.00;;;23.80;35.30;;;;;;5140904;27;20051;-69
2021/01/05 09:29:04;;;;;;;5.20;3.85;;;23.80;35.60;;;;;;5136878;27;20453;-69
2021/01/05 09:31:31;;;;;;;5.65;4.00;;;23.90;35.80;;;;;;5126172;27;20142;-69
2021/01/05 09:33:58;;;;;;;5.65;3.88;;;23.90;35.90;;;;;;5126919;27;20123;-71
2021/01/05 09:36:31;;;;;;;5.85;4.13;;;24.00;36.00;;;;;;5126189;27;20568;-68
2021/01/05 09:38:59;;;;;;;4.93;3.90;;;24.10;36.00;;;;;;5126263;27;20071;-71
2021/01/05 09:41:30;;;;;;;7.50;3.65;;;24.10;35.90;;;;;;5124841;27;20652;-67
2021/01/05 09:43:57;;;;;;;4.75;3.65;;;24.10;36.00;;;;;;5132205;27;20132;-73
2021/01/05 09:46:24;;;;;;;5.93;4.03;;;24.10;36.00;;;;;;5128086;27;20043;-72
2021/01/05 09:48:51;;;;;;;6.70;4.45;;;24.10;36.00;;;;;;5118980;27;20050;-70
2021/01/05 09:51:30;;;;;;;7.53;4.10;;;24.20;35.90;;;;;;5120087;27;20048;-71
2021/01/05 09:54:13;;;;;;;6.20;3.65;;;24.20;35.90;;;;;;5126582;27;20074;-72
2021/01/05 09:56:40;;;;;;;4.75;4.18;;;24.20;35.90;;;;;;5126474;27;20126;-74
2021/01/05 09:59:07;;;;;;;5.05;4.22;;;24.20;35.80;;;;;;5108739;27;20542;-71
2021/01/05 10:01:34;;;;;;;5.90;4.00;;;24.20;35.80;;;;;;5126509;27;20050;-74
2021/01/05 10:04:03;;;;;;;5.93;4.60;;;24.20;35.80;;;;;;5128903;27;20086;-73
2021/01/05 10:06:33;;;;;;;6.18;3.53;;;24.30;36.10;;;;;;5131716;27;20053;-68
2021/01/05 10:09:07;;;;;;;4.13;3.70;;;24.30;36.00;;;;;;5129483;27;20079;-70
2021/01/05 10:11:42;;;;;;;5.35;4.00;;;24.30;36.10;;;;;;5127408;27;20429;-68
2021/01/05 10:14:11;;;;;;;5.75;4.30;;;24.30;36.10;;;;;;5126738;27;20082;-70
2021/01/05 10:16:39;;;;;;;5.47;4.15;;;24.40;36.20;;;;;;5123167;27;20043;-69
2021/01/05 10:19:06;;;;;;;11.95;4.10;;;24.40;36.40;;;;;;5124242;27;20050;-69
2021/01/05 10:21:38;;;;;;;8.95;4.45;;;24.40;36.50;;;;;;5131302;27;20130;-68
2021/01/05 10:24:07;;;;;;;4.43;3.70;;;24.50;36.60;;;;;;5139989;27;20047;-70
2021/01/05 10:26:34;;;;;;;4.70;4.28;;;24.40;36.40;;;;;;5140315;27;20097;-70
2021/01/05 10:29:02;;;;;;;5.18;3.67;;;24.50;36.20;;;;;;5140385;27;20072;-71
2021/01/05 10:31:44;;;;;;;5.97;4.03;;;24.40;35.90;;;;;;5140327;27;20051;-68
2021/01/05 10:34:17;;;;;;;6.57;4.10;;;24.40;35.70;;;;;;5140005;27;20075;-70
2021/01/05 10:36:43;;;;;;;4.78;3.95;;;24.40;35.70;;;;;;5139329;27;20047;-70
2021/01/05 10:39:13;;;;;;;6.80;5.07;;;24.40;35.70;;;;;;5143579;27;20097;-70
2021/01/05 10:41:42;;;;;;;;;;;24.30;35.60;;;;;;5143627;27;20043;-72
2021/01/05 10:44:11;;;;;;;6.03;4.25;;;24.40;35.60;;;;;;5142063;27;20017;-70
2021/01/05 10:46:38;;;;;;;6.65;4.47;;;24.40;35.70;;;;;;5140191;27;20027;-68
2021/01/05 10:49:05;;;;;;;6.32;4.40;;;24.40;35.90;;;;;;5136918;27;20089;-70
2021/01/05 10:51:32;;;;;;;5.88;4.15;;;24.40;35.80;;;;;;5143431;27;20100;-66
2021/01/05 10:54:01;;;;;;;6.22;4.45;;;24.50;35.80;;;;;;5144215;27;20104;-68
2021/01/05 10:56:28;;;;;;;6.15;4.82;;;24.50;35.90;;;;;;5139069;27;20085;-72
2021/01/05 10:58:54;;;;;;;5.63;4.28;;;24.50;35.80;;;;;;5139177;27;20089;-70
2021/01/05 11:01:21;;;;;;;6.43;4.90;;;24.50;35.80;;;;;;5116083;27;20068;-69
2021/01/05 11:05:01;;;;;;;6.78;4.85;;;24.50;35.70;;;;;;5132883;27;20540;-68
2021/01/05 11:07:37;;;;;;;5.32;4.55;;;24.50;35.70;;;;;;5154540;27;20111;-66
2021/01/05 11:13:33;;;;;;;7.77;5.13;;;24.50;35.60;;;;;;5116590;27;20124;-69
2021/01/05 11:16:00;;;;;;;7.95;5.00;;;24.50;35.40;;;;;;5145280;27;20502;-66
2021/01/05 11:18:26;;;;;;;6.22;4.90;;;24.50;35.30;;;;;;5126834;27;20039;-71
2021/01/05 11:20:54;;;;;;;7.35;5.00;;;24.50;35.00;;;;;;5116036;27;20104;-71
2021/01/05 11:23:23;;;;;;;7.95;4.90;;;24.50;34.70;;;;;;5102284;27;20174;-71
2021/01/05 11:25:50;;;;;;;7.32;5.30;;;24.50;34.40;;;;;;5118585;27;20067;-70
2021/01/05 11:28:16;;;;;;;9.48;6.72;;;24.50;34.10;;;;;;5124211;27;20803;-71
2021/01/05 11:30:43;;;;;;;7.97;5.32;;;24.50;33.80;;;;;;5124459;27;20068;-70
2021/01/05 11:33:09;;;;;;;8.85;6.10;;;24.40;33.60;;;;;;5114308;27;20661;-69
2021/01/05 11:35:40;;;;;;;8.52;6.22;;;24.40;33.80;;;;;;5098997;27;20053;-67
2021/01/05 11:38:08;;;;;;;6.97;5.90;;;24.40;33.70;;;;;;5118196;27;20092;-70
2021/01/05 11:40:34;;;;;;;7.47;5.43;;;24.40;33.60;;;;;;5120536;27;20091;-73
2021/01/05 11:43:01;;;;;;;8.65;6.57;;;24.40;33.40;;;;;;5125548;27;20125;-71
2021/01/05 11:45:27;;;;;;;9.60;6.57;;;24.30;33.40;;;;;;5126516;27;20096;-73
2021/01/05 11:48:00;;;;;;;11.23;6.35;;;24.40;33.50;;;;;;5122696;27;20047;-69
2021/01/05 11:50:27;;;;;;;13.02;7.13;;;24.30;33.50;;;;;;5120410;27;20041;-73
2021/01/05 11:52:57;;;;;;;;;;;24.30;33.60;;;;;;5120334;27;20039;-72
2021/01/05 11:55:23;;;;;;;8.57;6.55;;;24.30;33.60;;;;;;5095620;27;20541;-72
2021/01/05 11:57:50;;;;;;;9.57;6.57;;;24.30;33.40;;;;;;5120549;27;20129;-72
2021/01/05 12:00:20;;;;;;;9.18;6.30;;;24.30;33.40;;;;;;5115240;27;20117;-69
2021/01/05 12:02:47;;;;;;;12.32;7.15;;;24.20;33.20;;;;;;5117505;27;20054;-68
2021/01/05 12:05:14;;;;;;;9.68;7.10;;;24.20;32.90;;;;;;5117664;27;20047;-72
2021/01/05 12:07:42;;;;;;;9.40;6.63;;;24.20;33.00;;;;;;5127734;27;20051;-73
2021/01/05 12:10:09;;;;;;;14.07;7.03;;;24.10;33.30;;;;;;5129213;27;20130;-72
2021/01/05 12:12:36;;;;;;;8.70;6.53;;;24.10;32.80;;;;;;5124403;27;20078;-73
2021/01/05 12:15:05;;;;;;;10.18;6.35;;;24.10;32.90;;;;;;5123230;27;20319;-73
2021/01/05 12:17:37;;;;;;;9.45;6.30;;;24.10;33.10;;;;;;5123972;27;20067;-74
2021/01/05 12:20:04;;;;;;;8.73;6.43;;;24.10;33.30;;;;;;5116278;27;20051;-70
2021/01/05 12:22:31;;;;;;;10.20;6.60;;;24.10;33.40;;;;;;5119133;27;20407;-73
2021/01/05 12:24:57;;;;;;;8.43;6.32;;;24.10;33.20;;;;;;5101557;27;20833;-70
2021/01/05 12:27:24;;;;;;;8.95;5.93;;;24.10;33.40;;;;;;5122115;27;20078;-71
2021/01/05 12:29:50;;;;;;;10.02;6.40;;;24.10;33.50;;;;;;5127108;27;20067;-72
2021/01/05 12:32:18;;;;;;;7.63;5.95;;;24.10;33.50;;;;;;5095353;27;20053;-71
2021/01/05 12:34:50;;;;;;;9.32;6.22;;;24.10;33.50;;;;;;5118118;27;20049;-76
2021/01/05 12:37:24;;;;;;;8.07;5.90;;;24.10;33.50;;;;;;5115056;27;20403;-73
2021/01/05 12:39:51;;;;;;;11.48;5.97;;;24.00;33.40;;;;;;5111926;27;20040;-70
2021/01/05 12:42:23;;;;;;;8.60;5.85;;;24.00;33.30;;;;;;5121078;27;20629;-74
2021/01/05 12:44:52;;;;;;;10.18;6.60;;;24.00;33.40;;;;;;5116686;27;20539;-72
2021/01/05 12:47:21;;;;;;;10.85;6.50;;;24.00;33.30;;;;;;5120613;27;20053;-74
2021/01/05 12:49:49;;;;;;;8.13;6.03;;;24.00;33.30;;;;;;5119509;27;20973;-73
2021/01/05 12:52:17;;;;;;;10.95;6.20;;;24.00;33.40;;;;;;5118224;27;20712;-72
2021/01/05 12:54:44;;;;;;;7.50;5.53;;;24.00;33.40;;;;;;5125401;27;20082;-75
2021/01/05 12:57:13;;;;;;;8.23;5.90;;;24.00;33.40;;;;;;5118414;27;20130;-70
2021/01/05 12:59:41;;;;;;;8.70;5.95;;;24.00;33.40;;;;;;5124648;27;20048;-74
2021/01/05 13:02:22;;;;;;;14.27;6.50;;;24.00;33.40;;;;;;5130468;27;20201;-73
2021/01/05 13:04:49;;;;;;;8.95;5.95;;;24.00;33.20;;;;;;5127833;27;20047;-75
2021/01/05 13:07:18;;;;;;;8.65;6.30;;;24.00;33.30;;;;;;5118416;27;20035;-73
2021/01/05 13:09:45;;;;;;;10.20;6.40;;;24.00;33.20;;;;;;5122862;27;20059;-74
2021/01/05 13:12:12;;;;;;;8.38;6.32;;;24.00;33.30;;;;;;5125771;27;20130;-71
2021/01/05 13:14:39;;;;;;;10.05;6.85;;;24.00;33.30;;;;;;5126433;27;20100;-73
2021/01/05 13:17:06;;;;;;;7.80;5.93;;;24.00;33.10;;;;;;5085384;27;20039;-70
2021/01/05 13:19:33;;;;;;;7.38;5.80;;;24.00;33.20;;;;;;5124722;27;20470;-69
2021/01/05 13:22:00;;;;;;;7.97;6.10;;;24.00;33.30;;;;;;5119719;27;20073;-71
2021/01/05 13:24:29;;;;;;;6.75;5.47;;;24.00;33.40;;;;;;5123735;27;20432;-72
2021/01/05 13:26:59;;;;;;;8.45;5.85;;;24.00;33.30;;;;;;5122585;27;20482;-73
2021/01/05 13:29:30;;;;;;;10.15;6.35;;;24.00;33.00;;;;;;5122146;27;20047;-73
2021/01/05 13:31:59;;;;;;;9.63;6.32;;;23.90;32.60;;;;;;5119161;27;20058;-72
2021/01/05 13:34:29;;;;;;;10.65;6.22;;;24.00;33.10;;;;;;5100062;27;20181;-73